Terminal Aerodrome Forecast
Issued by NWS Buffalo, NY

Home | Current Version | Previous Version | Text Only | Print | Product List | Glossary On
Versions: 1 2 3 4 5 6 7 8 9 10 11 12 13 14 15 16 17 18 19 20 21 22 23 24
768
FTUS41 KBUF 301500 AAA
TAFART
TAF AMD
KART 301500Z 3015/0112 05012KT 6SM -RA OVC040
     FM301800 06010KT P6SM BKN040
     FM010300 13006KT 5SM SHRA VCTS OVC025CB
     FM010800 15005KT P6SM BKN040 WS020/20035KT=

USA.gov is the U.S. government's official web portal to all federal, state and local government web resources and services.